Darstellungsparameter: Aktuell verwendete Einstellungen:
Skalierung der Graphiken ... ?
xyx+y,   Skalierungsfaktor:      Skalierung: Modus: x, Faktor: 1
Darstellungszeitraum ... ?
Vom - - bis: - -   Zeitraum: 29.05.2014 - 04.06.2014
Min/Max/Avg-Anzeige ... ?
Zeige MMA aktuell
Zeige MMA Monat
Zeige MMA alles
Zeige --A aktuell
Zeige --A Monat
Zeige --A alles
Keine MMA-Anzeige
MMA:
Keine MMA-Graphiken
MMA-Basis: 29.05.2014 - 04.06.2014
Quicknavigation für Darstellung... ?
Tage:      1T, 2T, 3T, 5T -1T -2T -3T -5T +1T +2T +3T +5T
Wochen: 1W, 2W, 3W -1W -2W -3W +1W +2W +3W
Monate: 1M, 3M, 6M -1M -3M -6M +1M +3M +6M
Jahre:    1J, 3J, 5J, 10J -1J -3J -5J -10J +1J +3J +5J +10J
Nutze für die Darstellung ... ?
Originaldaten oder ...
Mittelwerte Minima Maxima auf...
Stundenbasis Tagesbasis Wochenbasis
Monatsbasis Jahresbasis      Datenbasis: Mittelwerte auf Stundenbasis
Darstellen als:
Statistik (Auto) Statistik J:M      Darstellung:
Zur Graphik,    zurück zur Übersicht aller Sensoren.
 
Tabellarische Datenbersicht: ?
 
Sensor: Nr:Datum:Temp:Abs-Feuchte:Windchill:Wind:
Aussen-T/F 1 29-05-2014 00:00:00 11.16667 C 9.57 g/m*3 11.17 C 0 km/h
2 29-05-2014 01:00:00 10.63333 C 9.31 g/m*3 10.63 C 0.26667 km/h
3 29-05-2014 02:00:00 10.14167 C 9.1 g/m*3 10.14 C 0.13333 km/h
4 29-05-2014 03:00:00 9.84167 C 8.93 g/m*3 9.84 C 0 km/h
5 29-05-2014 04:00:00 9.73333 C 8.93 g/m*3 9.73 C 0.93333 km/h
6 29-05-2014 05:00:00 9.51667 C 8.79 g/m*3 9.52 C 1.74167 km/h
7 29-05-2014 06:00:00 9.525 C 8.84 g/m*3 9.53 C 4.00833 km/h
8 29-05-2014 07:00:00 9.725 C 8.96 g/m*3 9.05 C 6.425 km/h
9 29-05-2014 08:00:00 10.43333 C 9.35 g/m*3 10.43 C 4 km/h
10 29-05-2014 09:00:00 11.81667 C 9.97 g/m*3 11.82 C 3.2 km/h
11 29-05-2014 10:00:00 13.975 C 10.86 g/m*3 13.98 C 1.6 km/h
12 29-05-2014 11:00:00 15.875 C 11.31 g/m*3 15.88 C 2.26667 km/h
13 29-05-2014 12:00:00 17.50833 C 11.42 g/m*3 17.51 C 4.81667 km/h
14 29-05-2014 13:00:00 18.86667 C 11.32 g/m*3 18.87 C 9.15833 km/h
15 29-05-2014 14:00:00 18.81667 C 11.14 g/m*3 18.82 C 9.68333 km/h
16 29-05-2014 15:00:00 17.90833 C 10.94 g/m*3 17.91 C 9.825 km/h
17 29-05-2014 16:00:00 16.875 C 10.68 g/m*3 16.88 C 8.35 km/h
18 29-05-2014 17:00:00 16.40833 C 10.66 g/m*3 16.41 C 8.61667 km/h
19 29-05-2014 18:00:00 15.65 C 10.68 g/m*3 15.65 C 6.3 km/h
20 29-05-2014 19:00:00 14.85 C 10.82 g/m*3 14.85 C 3.46667 km/h
21 29-05-2014 20:00:00 14.375 C 10.8 g/m*3 14.38 C 2 km/h
22 29-05-2014 21:00:00 13.68333 C 10.9 g/m*3 13.68 C 0.13333 km/h
23 29-05-2014 22:00:00 13.05 C 9.96 g/m*3 13.05 C 6.71667 km/h
24 29-05-2014 23:00:00 12.34167 C 9.35 g/m*3 12.34 C 7.375 km/h
25 30-05-2014 00:00:00 11.85833 C 9.01 g/m*3 11.86 C 6.85 km/h
Sensor: Nr:Datum:Temp:Abs-Feuchte:Windchill:Wind:
Aussen-T/F 26 30-05-2014 01:00:00 11.325 C 8.63 g/m*3 11.33 C 8.325 km/h
27 30-05-2014 02:00:00 11.1 C 8.48 g/m*3 11.1 C 3.2 km/h
28 30-05-2014 03:00:00 10.9 C 8.3 g/m*3 10.9 C 3.33333 km/h
29 30-05-2014 04:00:00 10.68333 C 8.1 g/m*3 10.68 C 2.13333 km/h
30 30-05-2014 05:00:00 10.45 C 8.05 g/m*3 10.45 C 0.93333 km/h
31 30-05-2014 06:00:00 10.35833 C 7.87 g/m*3 10.36 C 3.46667 km/h
32 30-05-2014 07:00:00 10.69167 C 7.7 g/m*3 10.69 C 4.01667 km/h
33 30-05-2014 08:00:00 11.86667 C 7.64 g/m*3 11.87 C 6.84167 km/h
34 30-05-2014 09:00:00 12.55 C 7.34 g/m*3 12.55 C 9.01667 km/h
35 30-05-2014 10:00:00 14.34167 C 7.87 g/m*3 14.34 C 10.89167 km/h
36 30-05-2014 11:00:00 14.68333 C 7.92 g/m*3 14.68 C 9.425 km/h
37 30-05-2014 12:00:00 15.8 C 7.82 g/m*3 15.8 C 10.09167 km/h
38 30-05-2014 13:00:00 17.11667 C 8.28 g/m*3 17.12 C 12.1 km/h
39 30-05-2014 14:00:00 17.38333 C 7.97 g/m*3 17.38 C 10.89167 km/h
40 30-05-2014 15:00:00 16.83333 C 7.94 g/m*3 16.83 C 11.56667 km/h
41 30-05-2014 16:00:00 17.09167 C 8.15 g/m*3 17.09 C 8.73333 km/h
42 30-05-2014 17:00:00 16.16667 C 8.01 g/m*3 16.17 C 11.16667 km/h
43 30-05-2014 18:00:00 16.51667 C 7.96 g/m*3 16.52 C 9.825 km/h
44 30-05-2014 19:00:00 15.29167 C 7.76 g/m*3 15.29 C 9.28333 km/h
45 30-05-2014 20:00:00 14.26667 C 7.7 g/m*3 14.27 C 1.6 km/h
46 30-05-2014 21:00:00 11.56667 C 7.93 g/m*3 11.57 C 0.53333 km/h
47 30-05-2014 22:00:00 9.91667 C 7.61 g/m*3 9.92 C 0.13333 km/h
48 30-05-2014 23:00:00 8.8 C 7.44 g/m*3 8.8 C 0 km/h
49 31-05-2014 00:00:00 7.99167 C 7.24 g/m*3 7.99 C 0 km/h
50 31-05-2014 01:00:00 7.425 C 7.19 g/m*3 7.43 C 0 km/h
Sensor: Nr:Datum:Temp:Abs-Feuchte:Windchill:Wind:
Aussen-T/F 51 31-05-2014 02:00:00 6.925 C 7.11 g/m*3 6.93 C 0.26667 km/h
52 31-05-2014 03:00:00 6.44167 C 6.99 g/m*3 6.44 C 0 km/h
53 31-05-2014 04:00:00 5.99167 C 6.86 g/m*3 5.99 C 0.13333 km/h
54 31-05-2014 05:00:00 5.53333 C 6.69 g/m*3 5.53 C 0.13333 km/h
55 31-05-2014 06:00:00 5.53333 C 6.73 g/m*3 5.53 C 2.53333 km/h
56 31-05-2014 07:00:00 6.20833 C 7.06 g/m*3 6.21 C 2.13333 km/h
57 31-05-2014 08:00:00 8.59167 C 7.89 g/m*3 8.59 C 0 km/h
58 31-05-2014 09:00:00 10.38333 C 8.52 g/m*3 10.38 C 0.26667 km/h
59 31-05-2014 10:00:00 13.88333 C 9.59 g/m*3 13.88 C 0.26667 km/h
60 31-05-2014 11:00:00 17.58333 C 9.91 g/m*3 17.58 C 4.14167 km/h
61 31-05-2014 12:00:00 19.075 C 8.92 g/m*3 19.08 C 7.4 km/h
62 31-05-2014 13:00:00 20.08333 C 8.84 g/m*3 20.08 C 6.15833 km/h
63 31-05-2014 14:00:00 19.80833 C 8.3 g/m*3 19.81 C 5.60833 km/h
64 31-05-2014 15:00:00 20.48333 C 8.74 g/m*3 20.48 C 3.86667 km/h
65 31-05-2014 16:00:00 19.4 C 9.29 g/m*3 19.4 C 3.60833 km/h
66 31-05-2014 17:00:00 20.05833 C 9.22 g/m*3 20.06 C 6.05 km/h
67 31-05-2014 18:00:00 21 C 8.64 g/m*3 21 C 5.33333 km/h
68 31-05-2014 19:00:00 21.05 C 8.21 g/m*3 21.05 C 6.975 km/h
69 31-05-2014 20:00:00 17.11667 C 10.18 g/m*3 17.12 C 0.26667 km/h
70 31-05-2014 21:00:00 14.45833 C 9.58 g/m*3 14.46 C 0.8 km/h
71 31-05-2014 22:00:00 13.525 C 9.32 g/m*3 13.53 C 0 km/h
72 31-05-2014 23:00:00 13.14167 C 9.19 g/m*3 13.14 C 0 km/h
73 01-06-2014 00:00:00 12.4 C 9 g/m*3 12.4 C 0 km/h
74 01-06-2014 01:00:00 12.20833 C 8.96 g/m*3 12.21 C 0.26667 km/h
75 01-06-2014 02:00:00 11.46667 C 8.73 g/m*3 11.47 C 0.13333 km/h
Sensor: Nr:Datum:Temp:Abs-Feuchte:Windchill:Wind:
Aussen-T/F 76 01-06-2014 03:00:00 10.46667 C 8.44 g/m*3 10.47 C 0.26667 km/h
77 01-06-2014 04:00:00 10.24167 C 8.52 g/m*3 10.24 C 0 km/h
78 01-06-2014 05:00:00 10.43333 C 8.7 g/m*3 10.43 C 0.26667 km/h
79 01-06-2014 06:00:00 11.49167 C 8.86 g/m*3 11.49 C 1.86667 km/h
80 01-06-2014 07:00:00 12.125 C 8.93 g/m*3 12.13 C 1.46667 km/h
81 01-06-2014 08:00:00 13.00833 C 9.18 g/m*3 13.01 C 1.46667 km/h
82 01-06-2014 09:00:00 14.00833 C 9.51 g/m*3 14.01 C 2.66667 km/h
83 01-06-2014 10:00:00 16.35833 C 9.7 g/m*3 16.36 C 4.54167 km/h
84 01-06-2014 11:00:00 18.25 C 9.55 g/m*3 18.25 C 7.39167 km/h
85 01-06-2014 12:00:00 19.86667 C 9.55 g/m*3 19.87 C 8.33333 km/h
86 01-06-2014 13:00:00 20.75833 C 9.35 g/m*3 20.76 C 8.61667 km/h
87 01-06-2014 14:00:00 20.36 C 8.79 g/m*3 20.36 C 10.34 km/h
88 01-06-2014 15:00:00 21.95556 C 8.86 g/m*3 21.96 C 11.65556 km/h
89 01-06-2014 16:00:00 20.96667 C 8.8 g/m*3 20.97 C 10.76667 km/h
90 01-06-2014 17:00:00 20.24167 C 8.5 g/m*3 20.24 C 10.225 km/h
91 01-06-2014 18:00:00 19.425 C 8.15 g/m*3 19.43 C 8.475 km/h
92 01-06-2014 19:00:00 19.1 C 8.11 g/m*3 19.1 C 6.84167 km/h
93 01-06-2014 20:00:00 17.80833 C 8.57 g/m*3 17.81 C 2 km/h
94 01-06-2014 21:00:00 15.69167 C 9.46 g/m*3 15.69 C 0.13333 km/h
95 01-06-2014 22:00:00 15.03333 C 9.35 g/m*3 15.03 C 0.4 km/h
96 01-06-2014 23:00:00 13.98333 C 9.02 g/m*3 13.98 C 0.4 km/h
97 02-06-2014 00:00:00 13.45 C 9.01 g/m*3 13.45 C 0 km/h
98 02-06-2014 01:00:00 13.025 C 8.79 g/m*3 13.03 C 0.26667 km/h
99 02-06-2014 02:00:00 11.6 C 8.38 g/m*3 11.6 C 0.13333 km/h
100 02-06-2014 03:00:00 10.28333 C 8.16 g/m*3 10.28 C 0 km/h
Sensor: Nr:Datum:Temp:Abs-Feuchte:Windchill:Wind:
Aussen-T/F 101 02-06-2014 04:00:00 9.375 C 8.01 g/m*3 9.38 C 0 km/h
102 02-06-2014 05:00:00 8.79167 C 7.93 g/m*3 8.79 C 0 km/h
103 02-06-2014 06:00:00 8.79167 C 8.04 g/m*3 8.79 C 0.26667 km/h
104 02-06-2014 07:00:00 9.70833 C 8.36 g/m*3 9.71 C 2.26667 km/h
105 02-06-2014 08:00:00 11.5 C 8.96 g/m*3 11.5 C 0 km/h
106 02-06-2014 09:00:00 14.41111 C 9.81 g/m*3 14.41 C 1.42222 km/h
107 02-06-2014 10:00:00 15.7 C 9.68 g/m*3 15.7 C 2.84444 km/h
108 02-06-2014 12:00:00 20.8 C 9.05 g/m*3 20.8 C 7.53333 km/h
109 02-06-2014 13:00:00 21.07143 C 8.8 g/m*3 21.07 C 6.67143 km/h
110 02-06-2014 14:00:00 21.85 C 9.08 g/m*3 21.85 C 7.38333 km/h
111 02-06-2014 15:00:00 22.56667 C 8.69 g/m*3 22.57 C 6.55 km/h
112 02-06-2014 16:00:00 22.925 C 8.58 g/m*3 22.93 C 7.11667 km/h
113 02-06-2014 17:00:00 23.75455 C 8.54 g/m*3 23.75 C 8.20909 km/h
114 02-06-2014 18:00:00 23.61667 C 8.52 g/m*3 23.62 C 7.25 km/h
115 02-06-2014 19:00:00 22.45833 C 8.22 g/m*3 22.46 C 6.98333 km/h
116 02-06-2014 20:00:00 20.15 C 9.09 g/m*3 20.15 C 3.06667 km/h
117 02-06-2014 21:00:00 16.88333 C 9.84 g/m*3 16.88 C 0.4 km/h
118 02-06-2014 22:00:00 16.00833 C 9.5 g/m*3 16.01 C 0 km/h
119 02-06-2014 23:00:00 15.58333 C 9.33 g/m*3 15.58 C 0.26667 km/h
120 03-06-2014 00:00:00 14.56667 C 9.26 g/m*3 14.57 C 0 km/h
121 03-06-2014 01:00:00 13.43333 C 9.14 g/m*3 13.43 C 0 km/h
122 03-06-2014 02:00:00 12.24167 C 8.88 g/m*3 12.24 C 0.53333 km/h
123 03-06-2014 03:00:00 11.125 C 8.65 g/m*3 11.13 C 0 km/h
124 03-06-2014 04:00:00 10.31667 C 8.5 g/m*3 10.32 C 0 km/h
125 03-06-2014 05:00:00 9.83333 C 8.5 g/m*3 9.83 C 0 km/h
Sensor: Nr:Datum:Temp:Abs-Feuchte:Windchill:Wind:
Aussen-T/F 126 03-06-2014 06:00:00 10.15833 C 8.74 g/m*3 10.16 C 1.33333 km/h
127 03-06-2014 07:00:00 11.38333 C 9.15 g/m*3 11.38 C 3.2 km/h
128 03-06-2014 08:00:00 13.01667 C 9.49 g/m*3 13.02 C 2.8 km/h
129 03-06-2014 09:00:00 14.48333 C 9.96 g/m*3 14.48 C 1.46667 km/h
130 03-06-2014 10:00:00 17.89167 C 10.77 g/m*3 17.89 C 2.26667 km/h
131 03-06-2014 11:00:00 19.46667 C 11.05 g/m*3 19.47 C 3.06667 km/h
132 03-06-2014 12:00:00 18.825 C 11.37 g/m*3 18.83 C 1.2 km/h
133 03-06-2014 13:00:00 22.68333 C 8.9 g/m*3 22.68 C 5.21667 km/h
134 03-06-2014 14:00:00 20.8625 C 10.24 g/m*3 20.86 C 6.225 km/h
135 03-06-2014 15:00:00 19.96667 C 9.7 g/m*3 19.97 C 7.65833 km/h
136 03-06-2014 16:00:00 19.85833 C 10.74 g/m*3 19.86 C 1.34167 km/h
137 03-06-2014 17:00:00 19 C 11.71 g/m*3 19 C 0.26667 km/h
138 03-06-2014 18:00:00 20.64167 C 10.72 g/m*3 20.64 C 3.06667 km/h
139 03-06-2014 19:00:00 19.35 C 11.62 g/m*3 19.35 C 0.4 km/h
140 03-06-2014 20:00:00 17.025 C 11.16 g/m*3 17.02 C 0.4 km/h
141 03-06-2014 21:00:00 16.15833 C 10.73 g/m*3 16.16 C 0.26667 km/h
142 03-06-2014 22:00:00 14.65 C 9.94 g/m*3 14.65 C 0 km/h
143 03-06-2014 23:00:00 13.63333 C 9.77 g/m*3 13.63 C 0.66667 km/h
144 04-06-2014 00:00:00 12.96667 C 9.76 g/m*3 12.97 C 0.13333 km/h
145 04-06-2014 01:00:00 12.23333 C 9.55 g/m*3 12.23 C 0 km/h
146 04-06-2014 02:00:00 11.59167 C 9.44 g/m*3 11.59 C 0.26667 km/h
147 04-06-2014 03:00:00 11 C 9.27 g/m*3 11 C 0 km/h
148 04-06-2014 04:00:00 10.65833 C 9.2 g/m*3 10.66 C 0.4 km/h
149 04-06-2014 05:00:00 10.85 C 9.35 g/m*3 10.85 C 0 km/h
150 04-06-2014 06:00:00 11.60833 C 9.66 g/m*3 11.61 C 0.4 km/h
Sensor: Nr:Datum:Temp:Abs-Feuchte:Windchill:Wind:
Aussen-T/F 151 04-06-2014 07:00:00 12.94167 C 10.05 g/m*3 12.94 C 0.13333 km/h
152 04-06-2014 08:00:00 15.65 C 10.99 g/m*3 15.65 C 1.86667 km/h
153 04-06-2014 09:00:00 17.95 C 11.12 g/m*3 17.95 C 6.3 km/h
154 04-06-2014 11:00:00 20.675 C 12 g/m*3 20.68 C 4 km/h
155 04-06-2014 12:00:00 20.16667 C 11.44 g/m*3 20.17 C 5.63333 km/h
156 04-06-2014 13:00:00 17.975 C 11.29 g/m*3 17.98 C 9.675 km/h
157 04-06-2014 14:00:00 16.95 C 12.14 g/m*3 16.95 C 1.73333 km/h
158 04-06-2014 15:00:00 17.44167 C 13.06 g/m*3 17.44 C 1.86667 km/h
159 04-06-2014 16:00:00 17.09167 C 13.3 g/m*3 17.09 C 0.13333 km/h
160 04-06-2014 17:00:00 16.60833 C 13.3 g/m*3 16.61 C 0.8 km/h
161 04-06-2014 18:00:00 16.76667 C 13.22 g/m*3 16.77 C 0.8 km/h
162 04-06-2014 19:00:00 17.9 C 13.47 g/m*3 17.9 C 1 km/h
163 04-06-2014 21:00:00 14.53333 C 11.76 g/m*3 14.53 C 0.53333 km/h

Maximal/Minimal-Werte vom 29.05.2014 - 04.06.2014

Sensor Min Max Avg
Temp
(Aussen-T/F)
5.3 °C
31-05-2014  05:55:00
24 °C
02-06-2014  17:45:00
14.55 °C
Abs-Feuchte
(Aussen-T/F)
6.69 g/m*3
31-05-2014  05:00:00
13.47 g/m*3
04-06-2014  19:00:00
9.23 g/m*3
Windchill
(Aussen-T/F)
5.53 C
31-05-2014  05:00:00
23.75 C
02-06-2014  17:00:00
14.62 C

Die Daten stammen von einer Davis Vantage Pro 2 Wetter-Station und werden unter Linux mit der Software wview2wettercgi und aufbereitet. Alle Angaben erfolgen ohne Gewähr für ihre Vollständigkeit oder Richtigkeit.
Kontakt: Rainer Krienke krienke@uni-koblenz.de . Meine Webseiten an der Uni Koblenz oder privat.
Version: $Revision: 0.78 $